Time;durP1;ratioP1;P1;durP2;ratioP2;P2;SDS_P1;SDS_P2;PMS_P1;PMS_P2;Temp;Humidity;BMP_temperature;BMP_pressure;BME280_temperature;BME280_humidity;BME280_pressure;Samples;Min_cycle;Max_cycle;Signal;HPM_P1;HPM_P2
2022/07/07 00:00:21;;;;;;;4.20;2.40;;;15.40;91.30;;;;;;5002751;28;20515;-83
2022/07/07 00:02:48;;;;;;;2.70;2.50;;;15.40;91.70;;;;;;5003085;28;20492;-83
2022/07/07 00:05:15;;;;;;;2.90;2.40;;;15.30;91.80;;;;;;5002835;28;20446;-83
2022/07/07 00:07:41;;;;;;;2.20;2.10;;;15.40;91.70;;;;;;5001880;28;20484;-83
2022/07/07 00:10:09;;;;;;;2.10;2.00;;;15.40;91.50;;;;;;5022245;28;20458;-83
2022/07/07 00:12:36;;;;;;;2.60;2.50;;;15.30;91.80;;;;;;5022086;28;20459;-83
2022/07/07 00:15:05;;;;;;;3.67;2.83;;;15.20;92.00;;;;;;5002971;28;20467;-83
2022/07/07 00:17:31;;;;;;;3.27;3.07;;;15.30;92.10;;;;;;5002502;28;20812;-83
2022/07/07 00:19:58;;;;;;;3.00;2.67;;;15.30;92.10;;;;;;5018355;28;20466;-83
2022/07/07 00:22:25;;;;;;;2.50;2.30;;;15.30;92.10;;;;;;5022060;28;20451;-82
2022/07/07 00:24:52;;;;;;;2.50;2.40;;;15.20;92.20;;;;;;5020105;28;20455;-83
2022/07/07 00:27:19;;;;;;;3.90;2.23;;;15.10;92.20;;;;;;5030194;28;20487;-81
2022/07/07 00:29:45;;;;;;;2.40;2.20;;;15.10;92.50;;;;;;5023687;28;20455;-81
2022/07/07 00:32:13;;;;;;;3.47;2.33;;;15.10;92.60;;;;;;5011660;28;20476;-81
2022/07/07 00:34:40;;;;;;;3.73;2.67;;;15.00;92.80;;;;;;5013723;28;20454;-81
2022/07/07 00:37:07;;;;;;;3.77;2.10;;;15.10;93.10;;;;;;5015449;28;20449;-81
2022/07/07 00:39:33;;;;;;;4.40;3.30;;;15.10;93.30;;;;;;5003857;28;20457;-82
2022/07/07 00:42:00;;;;;;;2.20;2.10;;;15.20;93.10;;;;;;5012540;28;20484;-81
2022/07/07 00:44:27;;;;;;;2.00;1.90;;;15.10;93.20;;;;;;5013198;28;20973;-83
2022/07/07 00:46:55;;;;;;;3.00;2.27;;;15.10;93.50;;;;;;5002309;28;21017;-83
2022/07/07 00:49:23;;;;;;;2.90;2.63;;;15.10;93.60;;;;;;5001397;28;20453;-83
2022/07/07 00:51:51;;;;;;;2.50;2.30;;;15.10;93.80;;;;;;5006169;28;20481;-82
2022/07/07 00:54:18;;;;;;;2.50;2.30;;;15.10;93.50;;;;;;5020349;28;20459;-83
2022/07/07 00:56:45;;;;;;;2.30;2.10;;;15.10;93.50;;;;;;5016816;28;20462;-83
2022/07/07 00:59:13;;;;;;;2.53;2.37;;;15.20;93.60;;;;;;5001376;28;20455;-82
2022/07/07 01:01:41;;;;;;;6.40;3.23;;;15.20;93.50;;;;;;5004336;28;20557;-83
2022/07/07 01:04:10;;;;;;;2.50;2.30;;;15.10;93.90;;;;;;5011025;28;20458;-82
2022/07/07 01:06:39;;;;;;;4.57;2.60;;;15.10;93.90;;;;;;5001859;28;20459;-83
2022/07/07 01:09:06;;;;;;;2.70;2.50;;;15.10;94.10;;;;;;5001425;28;20448;-82
2022/07/07 01:11:51;;;;;;;3.63;2.70;;;14.90;94.50;;;;;;5002047;28;20463;-83
2022/07/07 01:14:17;;;;;;;2.90;2.70;;;15.00;94.60;;;;;;5004777;28;20447;-82
2022/07/07 01:16:45;;;;;;;4.30;2.20;;;15.00;94.60;;;;;;5006480;28;20459;-81
2022/07/07 01:19:13;;;;;;;3.10;2.83;;;15.00;94.60;;;;;;5026902;28;20490;-82
2022/07/07 01:21:49;;;;;;;2.80;2.47;;;14.90;94.90;;;;;;5020049;28;20477;-83
2022/07/07 01:24:17;;;;;;;4.30;2.97;;;15.00;95.10;;;;;;5001309;28;20462;-84
2022/07/07 01:26:44;;;;;;;6.63;3.40;;;15.10;95.20;;;;;;5017565;28;20466;-82
2022/07/07 01:29:11;;;;;;;3.33;2.80;;;15.20;95.20;;;;;;5020716;28;20459;-83
2022/07/07 01:31:38;;;;;;;3.60;2.70;;;15.10;94.80;;;;;;5004979;28;20472;-83
2022/07/07 01:34:04;;;;;;;2.93;2.70;;;15.20;95.00;;;;;;5000852;28;20459;-83
2022/07/07 01:36:31;;;;;;;5.57;2.43;;;15.20;94.70;;;;;;5000448;28;20461;-84
2022/07/07 01:38:58;;;;;;;2.50;2.40;;;15.30;94.60;;;;;;5000929;28;20454;-83
2022/07/07 01:41:26;;;;;;;2.33;2.13;;;15.30;94.90;;;;;;5013443;28;21016;-85
2022/07/07 01:43:53;;;;;;;2.70;2.50;;;15.20;94.90;;;;;;5020139;28;20463;-84
2022/07/07 07:47:42;;;;;;;3.10;2.80;;;20.30;89.00;;;;;;4940582;29;20500;-85
2022/07/07 07:50:11;;;;;;;2.83;2.70;;;20.20;89.60;;;;;;4944714;29;20456;-85
2022/07/07 07:52:39;;;;;;;2.73;2.53;;;20.30;89.30;;;;;;4941587;29;20481;-85
2022/07/07 07:55:06;;;;;;;2.77;2.63;;;20.40;89.30;;;;;;4945190;29;21220;-85
2022/07/07 07:57:33;;;;;;;3.33;2.73;;;20.50;89.10;;;;;;4946311;29;20450;-86
2022/07/07 08:00:00;;;;;;;2.90;2.70;;;20.50;88.40;;;;;;4946997;29;20463;-86
2022/07/07 08:02:27;;;;;;;3.20;2.90;;;20.50;88.20;;;;;;4940761;29;20462;-85
2022/07/07 08:04:55;;;;;;;3.50;3.20;;;20.40;87.60;;;;;;4939505;29;20460;-84
2022/07/07 08:07:22;;;;;;;2.80;2.60;;;20.30;87.90;;;;;;4938401;29;20461;-84
2022/07/07 08:09:49;;;;;;;7.10;3.23;;;20.00;89.60;;;;;;4938097;29;20463;-82
2022/07/07 08:12:16;;;;;;;3.53;3.13;;;19.90;90.20;;;;;;4938364;29;20556;-83
2022/07/07 08:14:43;;;;;;;2.93;2.77;;;19.60;90.20;;;;;;4938766;29;20469;-81
2022/07/07 08:17:10;;;;;;;3.43;3.10;;;19.40;90.60;;;;;;4937947;29;20479;-80
2022/07/07 08:19:36;;;;;;;2.80;2.60;;;19.20;90.90;;;;;;4943996;29;20453;-81
2022/07/07 08:22:05;;;;;;;5.50;3.73;;;19.10;91.10;;;;;;4943064;29;20461;-82
2022/07/07 08:24:32;;;;;;;3.97;3.53;;;19.10;91.20;;;;;;4942347;29;20988;-81
2022/07/07 08:26:59;;;;;;;2.63;2.40;;;19.20;91.50;;;;;;4940226;29;20481;-81
2022/07/07 08:29:26;;;;;;;6.17;3.50;;;19.20;91.50;;;;;;4940509;29;20481;-80
2022/07/07 08:31:52;;;;;;;3.23;2.47;;;19.20;91.50;;;;;;4939927;29;20458;-81
2022/07/07 08:34:19;;;;;;;4.60;3.40;;;19.20;91.90;;;;;;4942202;29;20471;-83
2022/07/07 08:36:46;;;;;;;2.70;2.50;;;19.40;92.20;;;;;;4940541;29;20492;-82
2022/07/07 08:39:14;;;;;;;4.17;3.00;;;19.50;91.70;;;;;;4939721;29;20454;-81
2022/07/07 08:41:42;;;;;;;4.07;3.67;;;19.40;91.80;;;;;;4939536;29;20453;-81
2022/07/07 08:44:09;;;;;;;2.60;2.40;;;19.40;92.10;;;;;;4938931;29;20468;-81
2022/07/07 08:46:36;;;;;;;3.03;2.37;;;19.30;92.00;;;;;;4938126;29;21011;-83
2022/07/07 08:49:03;;;;;;;4.60;3.07;;;19.50;92.30;;;;;;4939894;29;20489;-82
2022/07/07 08:51:30;;;;;;;2.60;2.40;;;19.70;92.50;;;;;;4939235;29;20481;-82
2022/07/07 08:53:57;;;;;;;2.43;2.33;;;20.00;92.50;;;;;;4943330;29;20447;-82
2022/07/07 08:56:25;;;;;;;3.23;2.93;;;20.20;91.40;;;;;;4938964;29;20477;-82
2022/07/07 08:58:52;;;;;;;4.10;3.70;;;20.30;91.30;;;;;;4949600;29;20451;-82
2022/07/07 09:01:19;;;;;;;3.27;2.97;;;20.20;91.30;;;;;;4953484;29;20447;-83
2022/07/07 09:03:46;;;;;;;3.70;3.40;;;20.00;91.60;;;;;;4943431;29;20457;-83
2022/07/07 09:06:13;;;;;;;3.63;3.43;;;19.70;92.20;;;;;;4942548;29;20551;-83
2022/07/07 09:08:40;;;;;;;4.07;3.67;;;19.60;92.70;;;;;;4942810;29;21005;-83
2022/07/07 09:11:09;;;;;;;4.40;4.13;;;19.80;93.50;;;;;;4942124;29;20838;-82
2022/07/07 09:13:37;;;;;;;3.67;3.40;;;19.90;93.60;;;;;;4938988;29;20454;-82
2022/07/07 09:16:13;;;;;;;2.77;2.67;;;19.90;93.10;;;;;;4938741;29;20513;-82
2022/07/07 09:18:44;;;;;;;7.30;3.63;;;19.90;93.40;;;;;;4941658;29;20450;-82
2022/07/07 09:21:26;;;;;;;5.13;2.93;;;19.80;93.50;;;;;;4941001;29;20491;-82
2022/07/07 09:23:54;;;;;;;4.00;3.00;;;20.00;93.80;;;;;;4941441;29;20455;-83
2022/07/07 09:26:37;;;;;;;3.30;3.10;;;20.20;93.50;;;;;;4939497;29;20501;-82
2022/07/07 09:29:07;;;;;;;3.73;2.97;;;20.30;93.20;;;;;;4938809;29;21030;-82
2022/07/07 09:31:57;;;;;;;4.07;3.60;;;20.30;93.20;;;;;;4939721;29;20460;-82
2022/07/07 09:34:25;;;;;;;3.97;3.37;;;19.90;93.60;;;;;;4937704;29;20514;-82
2022/07/07 09:39:42;;;;;;;2.00;1.90;;;19.60;94.80;;;;;;4940125;29;20454;-82
2022/07/07 09:42:22;;;;;;;2.60;2.20;;;19.30;95.30;;;;;;4940746;29;20516;-82
2022/07/07 09:44:53;;;;;;;2.37;2.17;;;19.20;96.00;;;;;;4939274;29;20943;-82
2022/07/07 09:47:21;;;;;;;1.97;1.87;;;19.30;96.70;;;;;;4939028;29;20470;-82
2022/07/07 09:50:02;;;;;;;2.10;1.90;;;19.50;96.50;;;;;;4939778;29;20580;-82
2022/07/07 09:52:30;;;;;;;2.50;2.30;;;19.30;96.50;;;;;;4938664;29;20454;-82
2022/07/07 09:54:58;;;;;;;2.10;2.00;;;19.00;96.30;;;;;;4939004;29;20461;-82
2022/07/07 09:57:25;;;;;;;2.53;2.40;;;19.00;96.90;;;;;;4938059;29;20450;-82
2022/07/07 09:59:53;;;;;;;2.03;1.83;;;19.10;97.00;;;;;;4939546;29;20456;-83
2022/07/07 10:02:22;;;;;;;2.40;2.10;;;19.00;97.00;;;;;;4939244;29;20457;-82
2022/07/07 10:04:51;;;;;;;1.70;1.60;;;18.80;97.10;;;;;;4939904;29;20454;-82
2022/07/07 10:07:26;;;;;;;1.80;1.70;;;18.80;96.90;;;;;;4940691;29;20465;-82
2022/07/07 10:09:54;;;;;;;2.87;2.67;;;18.70;96.90;;;;;;4938381;29;20491;-82
2022/07/07 10:12:23;;;;;;;2.90;2.40;;;18.80;97.40;;;;;;4937218;29;20963;-82
2022/07/07 10:14:51;;;;;;;2.37;2.27;;;19.00;97.40;;;;;;4937188;29;20453;-82
2022/07/07 10:17:21;;;;;;;3.67;2.90;;;19.10;97.50;;;;;;4937920;29;20457;-82
2022/07/07 10:19:48;;;;;;;3.37;3.07;;;19.30;96.80;;;;;;4938131;29;20453;-82
2022/07/07 10:22:16;;;;;;;3.30;3.00;;;19.20;96.60;;;;;;4938125;29;20494;-82
2022/07/07 10:24:43;;;;;;;2.80;2.60;;;19.40;96.40;;;;;;4939388;29;20468;-82
2022/07/07 10:27:18;;;;;;;2.40;2.30;;;19.70;96.20;;;;;;4938778;29;20834;-82
2022/07/07 10:29:46;;;;;;;2.90;2.67;;;19.90;96.00;;;;;;4939067;29;20489;-82
2022/07/07 10:32:17;;;;;;;3.00;2.67;;;20.30;95.20;;;;;;4940227;29;20461;-82
2022/07/07 10:34:51;;;;;;;3.20;3.00;;;20.20;95.00;;;;;;4940651;29;20521;-82
2022/07/07 10:37:19;;;;;;;2.40;2.20;;;20.40;95.00;;;;;;4939113;29;20451;-84
2022/07/07 10:39:48;;;;;;;2.10;2.00;;;20.40;94.20;;;;;;4939093;29;20449;-82
2022/07/07 10:42:40;;;;;;;2.87;2.67;;;20.50;94.10;;;;;;4939910;29;20456;-83
2022/07/07 10:45:08;;;;;;;1.93;1.83;;;20.20;94.20;;;;;;4938829;29;20466;-82
2022/07/07 10:47:37;;;;;;;2.60;2.50;;;20.10;94.60;;;;;;4938862;29;21034;-82
2022/07/07 10:50:30;;;;;;;3.73;3.40;;;20.20;95.00;;;;;;4939469;29;20494;-82
2022/07/07 10:52:58;;;;;;;2.90;2.70;;;20.10;94.60;;;;;;4939791;29;20453;-82
2022/07/07 10:55:52;;;;;;;2.70;2.60;;;20.10;94.70;;;;;;4938159;29;20509;-82
2022/07/07 10:58:52;;;;;;;3.00;2.70;;;20.10;94.60;;;;;;4937329;29;20451;-82
2022/07/07 11:01:19;;;;;;;3.00;2.80;;;20.20;94.70;;;;;;4937675;29;20450;-82
2022/07/07 11:03:46;;;;;;;3.93;2.63;;;20.40;94.40;;;;;;4937605;29;20454;-82
2022/07/07 11:06:14;;;;;;;3.40;2.60;;;20.20;94.30;;;;;;4941735;29;20475;-82
2022/07/07 11:08:41;;;;;;;2.13;2.03;;;20.10;95.10;;;;;;4941328;29;20497;-82
2022/07/07 11:11:08;;;;;;;3.47;3.17;;;20.00;94.80;;;;;;4942584;29;20465;-82
2022/07/07 11:13:37;;;;;;;2.50;2.37;;;20.00;95.20;;;;;;4943576;29;20458;-83
2022/07/07 11:16:20;;;;;;;3.27;2.57;;;20.00;95.50;;;;;;4947964;29;20478;-82
2022/07/07 11:18:50;;;;;;;2.47;2.27;;;19.90;95.90;;;;;;4949503;29;20458;-82
2022/07/07 11:21:18;;;;;;;3.50;2.50;;;19.60;97.40;;;;;;4945143;29;20993;-83
2022/07/07 11:23:49;;;;;;;2.47;2.37;;;19.40;97.50;;;;;;4948293;29;20552;-84
2022/07/07 11:26:18;;;;;;;2.87;2.67;;;19.30;97.50;;;;;;4944633;29;20833;-84
2022/07/07 11:28:45;;;;;;;2.63;2.43;;;19.30;98.00;;;;;;4944880;29;20493;-83
2022/07/07 11:31:12;;;;;;;2.40;2.30;;;19.40;98.60;;;;;;4945159;29;20460;-83
2022/07/07 11:33:39;;;;;;;2.37;2.17;;;19.60;98.20;;;;;;4944389;29;20469;-84
2022/07/07 11:36:15;;;;;;;2.60;2.40;;;19.80;97.40;;;;;;4944856;29;20520;-84
2022/07/07 11:38:45;;;;;;;2.53;2.33;;;19.90;96.50;;;;;;4944867;29;20449;-84
2022/07/07 11:41:12;;;;;;;1.80;1.70;;;20.00;96.60;;;;;;4943443;29;20477;-84
2022/07/07 11:43:39;;;;;;;3.43;2.27;;;20.20;96.60;;;;;;4943985;29;20521;-84
2022/07/07 11:46:11;;;;;;;2.03;1.83;;;20.20;95.80;;;;;;4941523;29;20484;-85
2022/07/07 11:48:41;;;;;;;2.97;2.10;;;20.50;95.70;;;;;;4944052;29;20482;-85
2022/07/07 11:51:08;;;;;;;2.63;2.43;;;20.30;95.20;;;;;;4945950;29;20452;-85
2022/07/07 11:53:43;;;;;;;2.77;2.57;;;20.20;95.10;;;;;;4945287;29;20455;-85
2022/07/07 11:56:27;;;;;;;2.53;2.33;;;20.00;95.50;;;;;;4940243;29;20487;-85
2022/07/07 11:58:56;;;;;;;4.57;2.10;;;19.80;95.80;;;;;;4941752;29;20512;-85
2022/07/07 12:01:23;;;;;;;3.20;2.70;;;19.70;95.70;;;;;;4942289;29;20489;-84
2022/07/07 12:03:49;;;;;;;7.07;3.10;;;19.70;95.80;;;;;;4935649;29;20512;-82
2022/07/07 12:06:16;;;;;;;2.70;2.50;;;19.70;95.70;;;;;;4942451;29;20475;-83
2022/07/07 12:09:36;;;;;;;2.03;1.63;;;19.70;95.50;;;;;;4940077;29;20485;-85
2022/07/07 12:12:42;;;;;;;3.60;2.63;;;19.90;95.30;;;;;;4902962;29;21034;-85
2022/07/07 12:15:12;;;;;;;3.33;3.10;;;19.90;95.20;;;;;;4927594;29;20458;-86
2022/07/07 12:17:54;;;;;;;3.57;3.27;;;19.90;95.30;;;;;;4914082;29;20464;-84
2022/07/07 12:20:29;;;;;;;6.77;4.43;;;19.80;95.20;;;;;;4930137;29;20454;-82
2022/07/07 12:26:28;;;;;;;2.53;2.37;;;19.70;95.80;;;;;;4900323;29;20569;-84
2022/07/07 12:28:59;;;;;;;5.67;3.80;;;19.70;95.80;;;;;;4938648;29;20516;-85
2022/07/07 12:31:26;;;;;;;18.93;4.70;;;19.70;96.10;;;;;;4939996;29;20466;-85
2022/07/07 12:37:15;;;;;;;3.47;2.63;;;19.70;95.50;;;;;;4908835;29;20468;-90
2022/07/07 12:39:43;;;;;;;4.03;2.80;;;19.80;95.40;;;;;;4919182;29;20967;-84
2022/07/07 12:42:11;;;;;;;3.30;2.10;;;19.80;95.20;;;;;;4940661;29;20459;-89
2022/07/07 13:12:59;;;;;;;3.60;3.30;;;19.80;95.00;;;;;;5260611;23;20491;-84
2022/07/07 13:15:26;;;;;;;2.70;2.50;;;19.70;94.80;;;;;;4997259;28;20476;-84
2022/07/07 13:17:53;;;;;;;3.50;2.63;;;20.00;94.70;;;;;;4982887;28;20450;-85
2022/07/07 13:20:20;;;;;;;3.33;3.03;;;20.20;94.80;;;;;;4982989;28;20859;-85
2022/07/07 13:22:51;;;;;;;2.87;2.67;;;20.50;95.00;;;;;;4981671;28;20462;-85
2022/07/07 13:25:18;;;;;;;3.10;2.90;;;20.80;93.80;;;;;;4978078;28;20477;-84
2022/07/07 13:27:51;;;;;;;2.70;2.40;;;20.80;93.80;;;;;;4975885;28;20444;-84
2022/07/07 13:30:26;;;;;;;2.90;2.77;;;21.00;93.60;;;;;;4976907;28;20575;-85
2022/07/07 13:32:53;;;;;;;3.23;3.00;;;21.20;93.90;;;;;;4970600;28;20470;-84
2022/07/07 13:35:40;;;;;;;3.00;2.80;;;21.00;93.00;;;;;;4974012;28;20477;-85
2022/07/07 13:38:17;;;;;;;3.90;3.13;;;20.90;93.50;;;;;;4980454;28;20461;-84
2022/07/07 13:40:43;;;;;;;2.10;2.00;;;20.90;93.80;;;;;;4995657;28;20449;-84
2022/07/07 13:43:10;;;;;;;5.00;2.87;;;20.90;93.70;;;;;;4976700;28;20454;-83
2022/07/07 13:45:38;;;;;;;2.93;2.70;;;20.70;93.60;;;;;;5000845;23;20469;-84
2022/07/07 13:48:06;;;;;;;3.27;3.07;;;20.90;94.10;;;;;;4986589;28;20452;-84
2022/07/07 13:50:33;;;;;;;4.23;3.10;;;20.90;93.70;;;;;;4997369;28;20840;-84
2022/07/07 13:52:59;;;;;;;3.30;3.00;;;21.00;94.20;;;;;;5007763;28;20466;-84
2022/07/07 13:55:26;;;;;;;2.90;2.70;;;21.10;94.20;;;;;;4985554;28;20461;-84
2022/07/07 13:57:53;;;;;;;6.13;2.93;;;21.20;93.90;;;;;;4964417;29;20449;-84
2022/07/07 14:00:20;;;;;;;3.10;2.20;;;21.20;93.60;;;;;;4964242;29;20537;-83
2022/07/07 14:02:49;;;;;;;3.23;2.90;;;21.00;93.30;;;;;;4962491;29;20459;-83
2022/07/07 14:05:16;;;;;;;2.83;2.63;;;20.90;93.60;;;;;;4962142;29;20502;-84
2022/07/07 14:07:43;;;;;;;3.03;2.83;;;20.70;94.10;;;;;;4962535;29;20483;-84
2022/07/07 14:10:31;;;;;;;4.70;2.80;;;20.50;94.20;;;;;;4966003;29;20488;-83
2022/07/07 14:14:07;;;;;;;2.50;2.40;;;20.20;94.50;;;;;;4968519;28;20454;-83
2022/07/07 14:16:50;;;;;;;3.97;2.97;;;20.00;96.30;;;;;;4954515;28;20485;-85
2022/07/07 14:19:21;;;;;;;3.03;2.80;;;19.40;99.90;;;;;;4970395;29;20437;-84
2022/07/07 14:21:48;;;;;;;4.00;3.40;;;18.70;99.90;;;;;;4964858;29;20487;-84
2022/07/07 14:24:14;;;;;;;3.30;2.77;;;18.30;99.90;;;;;;4964190;29;20471;-85
2022/07/07 14:26:41;;;;;;;3.43;2.57;;;17.80;99.90;;;;;;4964969;29;20483;-84
2022/07/07 14:29:08;;;;;;;1.90;1.80;;;17.40;99.90;;;;;;4963214;29;20466;-82
2022/07/07 14:31:55;;;;;;;3.30;2.20;;;17.20;99.90;;;;;;4963336;29;20468;-85
2022/07/07 14:34:53;;;;;;;2.60;2.40;;;17.00;99.90;;;;;;4962351;29;20871;-86
2022/07/07 14:37:34;;;;;;;2.13;2.03;;;16.80;99.90;;;;;;4957793;28;21009;-86
2022/07/07 14:40:24;;;;;;;3.10;2.17;;;16.70;99.90;;;;;;4962878;28;20479;-87
2022/07/07 14:42:51;;;;;;;1.90;1.80;;;16.60;99.90;;;;;;4941268;29;20997;-84
2022/07/07 14:49:03;;;;;;;2.07;1.97;;;16.70;99.90;;;;;;4961211;28;20461;-85
2022/07/07 14:51:56;;;;;;;5.47;2.67;;;17.00;99.90;;;;;;4962190;28;20510;-86
2022/07/07 14:54:22;;;;;;;3.43;3.13;;;17.00;99.90;;;;;;4964476;29;20466;-85
2022/07/07 15:07:00;;;;;;;1.90;1.80;;;17.50;99.90;;;;;;4913915;29;20469;-84
2022/07/07 15:15:50;;;;;;;2.13;2.03;;;17.60;99.90;;;;;;4943357;28;20939;-84
2022/07/07 15:18:17;;;;;;;2.07;1.97;;;17.70;99.90;;;;;;5001299;28;20476;-84
2022/07/07 15:24:36;;;;;;;2.23;2.03;;;18.40;99.90;;;;;;4980077;28;20490;-85
2022/07/07 15:27:04;;;;;;;1.57;1.47;;;18.80;99.90;;;;;;4984105;28;20486;-83
2022/07/07 15:29:31;;;;;;;2.00;1.90;;;18.80;99.90;;;;;;5000158;28;20513;-84
2022/07/07 15:31:58;;;;;;;1.57;1.47;;;18.60;99.90;;;;;;5000189;28;20959;-82
2022/07/07 15:34:24;;;;;;;2.53;2.13;;;18.40;99.90;;;;;;5000026;28;20826;-82
2022/07/07 15:36:52;;;;;;;1.60;1.50;;;18.10;99.90;;;;;;4999340;28;21022;-84
2022/07/07 15:39:20;;;;;;;1.73;1.63;;;18.00;99.90;;;;;;5001990;28;20450;-82
2022/07/07 15:41:47;;;;;;;2.53;1.50;;;18.00;99.90;;;;;;5003906;28;20474;-81
2022/07/07 15:44:14;;;;;;;1.60;1.50;;;17.80;99.90;;;;;;5000076;28;20518;-83
2022/07/07 15:46:41;;;;;;;2.33;2.20;;;17.60;99.90;;;;;;4999291;28;20575;-83
2022/07/07 15:49:08;;;;;;;3.60;2.00;;;17.50;99.90;;;;;;5000596;28;20454;-84
2022/07/07 15:51:35;;;;;;;1.57;1.47;;;17.40;99.90;;;;;;5003106;28;20499;-83
2022/07/07 15:57:00;;;;;;;1.60;1.50;;;17.40;99.90;;;;;;5012420;28;20532;-82
2022/07/07 15:59:27;;;;;;;1.70;1.60;;;17.40;99.90;;;;;;5003670;28;20483;-83
2022/07/07 16:01:55;;;;;;;3.97;2.13;;;17.40;99.90;;;;;;5003710;28;20516;-82
2022/07/07 16:04:36;;;;;;;3.57;1.93;;;17.40;99.90;;;;;;5003870;28;20492;-82
2022/07/07 16:07:05;;;;;;;2.00;1.90;;;17.50;99.90;;;;;;4984367;28;20485;-83
2022/07/07 16:09:32;;;;;;;1.90;1.60;;;17.50;99.90;;;;;;4984704;28;20458;-82
2022/07/07 16:12:00;;;;;;;1.67;1.57;;;17.50;99.90;;;;;;5003162;28;20458;-84
2022/07/07 16:14:27;;;;;;;3.83;2.20;;;17.50;99.90;;;;;;5004893;28;20811;-83
2022/07/07 16:19:54;;;;;;;1.50;1.40;;;17.70;99.90;;;;;;5006574;28;20817;-83
2022/07/07 16:25:06;;;;;;;1.70;1.60;;;17.80;99.90;;;;;;4985074;28;20462;-84
2022/07/07 16:27:51;;;;;;;2.03;1.70;;;17.90;99.90;;;;;;4985823;28;20474;-85
2022/07/07 16:30:31;;;;;;;1.73;1.57;;;18.00;99.90;;;;;;4985009;28;20497;-85
2022/07/07 16:33:12;;;;;;;2.40;1.50;;;18.10;99.90;;;;;;4990063;28;20710;-84
2022/07/07 16:35:39;;;;;;;1.93;1.67;;;18.30;99.90;;;;;;5006758;28;20470;-80
2022/07/07 16:38:06;;;;;;;3.17;1.50;;;18.70;99.90;;;;;;5005248;28;20455;-82
2022/07/07 16:40:34;;;;;;;1.53;1.40;;;19.50;99.90;;;;;;5004526;28;20457;-84
2022/07/07 16:43:03;;;;;;;1.53;1.43;;;20.40;99.90;;;;;;5005166;28;20465;-84
2022/07/07 16:45:30;;;;;;;1.80;1.40;;;21.30;99.90;;;;;;5004786;28;20454;-84
2022/07/07 16:47:57;;;;;;;1.17;1.17;;;21.20;98.70;;;;;;5013082;28;20485;-82
2022/07/07 16:50:27;;;;;;;2.20;1.80;;;20.80;98.00;;;;;;5006885;28;20499;-84
2022/07/07 16:52:54;;;;;;;1.70;1.60;;;20.20;98.40;;;;;;5003938;28;20462;-84
2022/07/07 16:55:21;;;;;;;2.00;1.90;;;19.80;98.70;;;;;;5002440;28;20456;-84
2022/07/07 16:57:47;;;;;;;2.30;2.10;;;19.40;98.80;;;;;;5006116;28;20491;-81
2022/07/07 17:00:21;;;;;;;2.83;2.20;;;19.30;99.70;;;;;;5001621;28;20470;-80
2022/07/07 17:02:48;;;;;;;1.87;1.77;;;19.20;99.80;;;;;;5000915;28;20828;-80
2022/07/07 17:05:15;;;;;;;3.90;1.70;;;19.00;99.70;;;;;;5001977;28;20454;-81
2022/07/07 17:07:42;;;;;;;2.30;2.10;;;19.00;99.90;;;;;;5001513;28;20471;-81
2022/07/07 17:10:09;;;;;;;1.90;1.80;;;19.10;99.90;;;;;;5002785;28;20549;-81
2022/07/07 17:12:36;;;;;;;1.73;1.63;;;19.10;99.90;;;;;;5003093;28;20462;-81
2022/07/07 17:21:50;;;;;;;2.10;2.00;;;18.80;99.90;;;;;;4934854;29;20401;-84
2022/07/07 17:28:37;;;;;;;1.90;1.80;;;18.70;99.90;;;;;;4929218;29;20548;-84
2022/07/07 17:34:11;;;;;;;2.60;1.73;;;18.40;99.90;;;;;;4906831;29;20477;-86
2022/07/07 17:36:52;;;;;;;2.73;1.90;;;18.50;99.90;;;;;;4909785;29;20487;-85
2022/07/07 17:42:45;;;;;;;2.10;1.97;;;18.40;99.90;;;;;;4927428;28;20512;-89
2022/07/07 17:45:49;;;;;;;1.97;1.80;;;18.40;99.90;;;;;;4977664;28;20846;-89
2022/07/07 17:48:16;;;;;;;4.10;3.80;;;18.40;99.90;;;;;;4999463;28;20464;-87
2022/07/07 17:50:43;;;;;;;3.73;2.23;;;18.30;99.90;;;;;;4999910;28;20485;-86
2022/07/07 17:53:11;;;;;;;2.40;2.13;;;18.30;99.90;;;;;;4998014;28;20474;-87
2022/07/07 17:55:39;;;;;;;2.47;2.37;;;18.30;99.90;;;;;;4997153;28;20442;-87
2022/07/07 17:58:13;;;;;;;1.63;1.43;;;18.30;99.90;;;;;;4997278;28;20458;-88
2022/07/07 18:00:46;;;;;;;2.10;2.00;;;18.20;99.80;;;;;;4997238;28;20438;-87
2022/07/07 18:03:27;;;;;;;2.07;1.97;;;18.30;99.80;;;;;;4996662;28;20486;-88
2022/07/07 18:05:54;;;;;;;4.63;1.53;;;18.20;99.70;;;;;;4991181;28;20481;-88
2022/07/07 18:08:48;;;;;;;1.83;1.73;;;18.30;99.90;;;;;;4985869;28;20526;-89
2022/07/07 18:11:21;;;;;;;2.30;2.17;;;18.20;99.80;;;;;;4988305;28;20479;-88
2022/07/07 18:13:59;;;;;;;1.73;1.63;;;18.20;99.90;;;;;;4992961;28;20481;-87
2022/07/07 18:16:26;;;;;;;2.17;1.83;;;18.20;99.90;;;;;;4999215;28;20485;-86
2022/07/07 18:18:54;;;;;;;1.70;1.60;;;18.10;99.90;;;;;;5002645;28;21086;-85
2022/07/07 18:21:21;;;;;;;1.60;1.50;;;18.00;99.90;;;;;;5002801;28;20485;-86
2022/07/07 18:23:49;;;;;;;3.63;2.00;;;18.00;99.90;;;;;;5002700;28;20550;-85
2022/07/07 18:26:23;;;;;;;2.50;2.10;;;18.00;99.90;;;;;;4999835;28;20478;-86
2022/07/07 18:28:58;;;;;;;1.97;1.87;;;18.00;99.90;;;;;;5009965;28;20475;-87
2022/07/07 18:31:24;;;;;;;3.23;1.83;;;18.00;99.90;;;;;;4998798;28;20477;-86
2022/07/07 18:33:51;;;;;;;2.10;2.00;;;17.90;99.90;;;;;;5000364;28;21187;-85
2022/07/07 18:36:21;;;;;;;2.00;1.90;;;17.90;99.90;;;;;;5000223;28;20469;-85
2022/07/07 18:38:51;;;;;;;3.67;2.30;;;17.80;99.90;;;;;;4999615;28;20927;-86
2022/07/07 18:41:19;;;;;;;1.80;1.70;;;17.80;99.90;;;;;;5002824;28;20454;-86
2022/07/07 18:43:45;;;;;;;2.70;1.60;;;17.80;99.90;;;;;;5001301;28;20493;-85
2022/07/07 18:46:12;;;;;;;1.67;1.57;;;17.70;99.90;;;;;;4999087;28;21006;-85
2022/07/07 18:48:39;;;;;;;2.57;2.20;;;17.70;99.90;;;;;;5000658;28;20445;-85
2022/07/07 18:53:52;;;;;;;1.47;1.43;;;17.70;99.90;;;;;;5004480;28;20477;-85
2022/07/07 18:56:19;;;;;;;2.00;1.90;;;17.60;99.90;;;;;;5003964;28;20485;-85
2022/07/07 18:58:46;;;;;;;1.90;1.80;;;17.70;99.90;;;;;;5004926;28;20836;-85
2022/07/07 19:01:13;;;;;;;3.43;1.87;;;17.60;99.90;;;;;;5005385;28;20460;-85
2022/07/07 19:03:39;;;;;;;2.13;1.93;;;17.60;99.90;;;;;;5005302;28;20456;-85
2022/07/07 19:06:06;;;;;;;1.67;1.57;;;17.60;99.90;;;;;;5005255;28;20476;-85
2022/07/07 19:08:34;;;;;;;1.87;1.77;;;17.50;99.90;;;;;;5000652;28;20461;-85
2022/07/07 19:11:03;;;;;;;4.50;2.00;;;17.50;99.90;;;;;;4997140;28;20568;-85
2022/07/07 19:13:30;;;;;;;1.90;1.80;;;17.50;99.90;;;;;;4996632;28;20457;-85
2022/07/07 19:15:57;;;;;;;2.20;2.00;;;17.40;99.90;;;;;;4998316;28;20486;-84
2022/07/07 19:18:24;;;;;;;8.70;2.17;;;17.50;99.90;;;;;;5009192;28;20447;-84
2022/07/07 19:20:51;;;;;;;3.77;2.33;;;17.40;99.90;;;;;;5002078;28;20458;-85
2022/07/07 19:23:17;;;;;;;1.50;1.40;;;17.40;99.90;;;;;;5001392;28;20452;-84
2022/07/07 19:25:44;;;;;;;1.47;1.40;;;17.40;99.90;;;;;;5003357;28;20461;-84
2022/07/07 19:28:13;;;;;;;1.93;1.83;;;17.40;99.90;;;;;;5006142;28;20485;-85
2022/07/07 19:30:40;;;;;;;1.60;1.50;;;17.40;99.90;;;;;;5005787;28;21069;-84
2022/07/07 19:33:06;;;;;;;7.27;2.13;;;17.30;99.90;;;;;;5007680;28;20452;-84
2022/07/07 19:35:33;;;;;;;2.97;1.80;;;17.30;99.90;;;;;;5004282;28;20452;-84
2022/07/07 19:38:00;;;;;;;4.63;2.27;;;17.30;99.90;;;;;;5003652;28;20446;-84
2022/07/07 19:40:28;;;;;;;1.93;1.80;;;17.30;99.90;;;;;;5002724;28;20465;-83
2022/07/07 19:42:55;;;;;;;1.90;1.80;;;17.30;99.90;;;;;;5002615;28;20453;-84
2022/07/07 19:45:24;;;;;;;2.20;2.10;;;17.30;99.90;;;;;;5002450;28;20471;-84
2022/07/07 19:54:36;;;;;;;2.10;2.00;;;17.30;99.90;;;;;;4970289;28;20883;-87
2022/07/07 21:42:37;;;;;;;1.43;1.33;;;16.70;99.90;;;;;;5206504;23;20495;-83
2022/07/07 21:45:06;;;;;;;1.30;1.30;;;16.70;99.90;;;;;;4974691;28;20482;-83
2022/07/07 21:47:33;;;;;;;2.17;1.97;;;16.70;99.90;;;;;;4981638;28;20985;-84
2022/07/07 21:49:59;;;;;;;2.47;1.80;;;16.70;99.90;;;;;;4980430;28;20455;-85
2022/07/07 21:52:26;;;;;;;1.50;1.40;;;16.70;99.90;;;;;;4978811;28;20495;-84
2022/07/07 21:54:53;;;;;;;1.43;1.17;;;16.70;99.90;;;;;;4972771;28;20457;-84
2022/07/07 21:57:20;;;;;;;1.60;1.50;;;16.70;99.90;;;;;;4960109;28;20485;-84
2022/07/07 21:59:48;;;;;;;1.30;1.20;;;16.70;99.90;;;;;;4960118;28;20458;-84
2022/07/07 22:02:15;;;;;;;1.70;1.60;;;16.70;99.90;;;;;;4960321;28;20606;-84
2022/07/07 22:07:27;;;;;;;1.60;1.60;;;16.70;99.90;;;;;;4959668;29;20475;-84
2022/07/07 22:09:53;;;;;;;1.97;1.77;;;16.70;99.90;;;;;;4959671;28;20994;-84
2022/07/07 22:12:20;;;;;;;1.63;1.53;;;16.70;99.90;;;;;;4959322;28;20513;-84
2022/07/07 22:14:50;;;;;;;1.80;1.70;;;16.70;99.90;;;;;;4959611;28;20450;-84
2022/07/07 22:17:17;;;;;;;1.80;1.70;;;16.70;99.90;;;;;;4963015;28;20466;-85
2022/07/07 22:19:44;;;;;;;2.10;1.90;;;16.70;99.90;;;;;;4985691;28;20461;-84
2022/07/07 22:22:11;;;;;;;1.70;1.60;;;16.70;99.90;;;;;;4983849;28;20472;-83
2022/07/07 22:24:38;;;;;;;2.77;1.93;;;16.70;99.90;;;;;;4968324;28;20454;-82
2022/07/07 22:27:05;;;;;;;1.43;1.33;;;16.70;99.90;;;;;;4964242;28;20470;-82
2022/07/07 22:29:32;;;;;;;4.27;1.70;;;16.60;99.90;;;;;;4982962;28;20461;-83